createdAt,value
2023-05-22T00:01:02.034Z,18.50
2023-05-22T00:03:31.444Z,18.50
2023-05-22T00:06:00.284Z,18.50
2023-05-22T00:08:29.839Z,18.40
2023-05-22T00:10:58.218Z,18.40
2023-05-22T00:13:26.231Z,18.40
2023-05-22T00:15:54.482Z,18.40
2023-05-22T00:18:22.694Z,18.40
2023-05-22T00:20:52.158Z,18.40
2023-05-22T00:23:21.866Z,18.30
2023-05-22T00:25:50.689Z,18.30
2023-05-22T00:28:18.744Z,18.30
2023-05-22T00:30:47.077Z,18.20
2023-05-22T00:33:15.112Z,18.20
2023-05-22T00:35:43.114Z,18.20
2023-05-22T00:38:28.972Z,18.10
2023-05-22T00:40:57.068Z,18.10
2023-05-22T00:43:25.075Z,18.10
2023-05-22T00:45:54.068Z,18.00
2023-05-22T00:48:22.226Z,18.00
2023-05-22T00:50:51.067Z,18.00
2023-05-22T00:53:21.729Z,17.90
2023-05-22T00:55:50.336Z,17.90
2023-05-22T00:58:19.997Z,17.90
2023-05-22T01:00:48.262Z,17.90
2023-05-22T01:03:18.955Z,17.80
2023-05-22T01:05:47.159Z,17.80
2023-05-22T01:08:15.145Z,17.70
2023-05-22T01:10:44.532Z,17.70
2023-05-22T01:13:25.111Z,17.70
2023-05-22T01:16:02.504Z,17.70
2023-05-22T01:18:36.673Z,17.60
2023-05-22T01:21:10.267Z,17.60
2023-05-22T01:24:18.274Z,17.50
2023-05-22T01:27:19.039Z,17.50
2023-05-22T01:29:55.669Z,17.50
2023-05-22T01:32:47.598Z,17.50
2023-05-22T01:35:19.060Z,17.50
2023-05-22T01:37:47.793Z,17.40
2023-05-22T01:40:17.028Z,17.40
2023-05-22T01:42:46.248Z,17.40
2023-05-22T01:45:15.912Z,17.30
2023-05-22T01:47:47.677Z,17.30
2023-05-22T01:50:16.133Z,17.30
2023-05-22T01:52:56.907Z,17.30
2023-05-22T01:55:35.106Z,17.30
2023-05-22T01:58:21.451Z,17.30
2023-05-22T02:00:51.596Z,17.30
2023-05-22T02:03:23.943Z,17.20
2023-05-22T02:05:56.657Z,17.20
2023-05-22T02:08:26.216Z,17.20
2023-05-22T02:10:57.181Z,17.20
2023-05-22T02:13:25.327Z,17.20
2023-05-22T02:15:53.891Z,17.20
2023-05-22T02:18:29.459Z,17.20
2023-05-22T02:20:57.614Z,17.10
2023-05-22T02:23:25.708Z,17.20
2023-05-22T02:25:55.412Z,17.20
2023-05-22T02:28:23.476Z,17.10
2023-05-22T02:30:51.692Z,17.10
2023-05-22T02:33:19.946Z,17.20
2023-05-22T02:35:52.077Z,17.20
2023-05-22T02:38:20.342Z,17.20
2023-05-22T02:40:49.681Z,17.20
2023-05-22T02:43:17.723Z,17.20
2023-05-22T02:45:45.779Z,17.20
2023-05-22T02:48:13.873Z,17.20
2023-05-22T02:50:44.162Z,17.20
2023-05-22T02:53:14.394Z,17.10
2023-05-22T02:55:42.670Z,17.20
2023-05-22T02:58:11.872Z,17.20
2023-05-22T03:00:40.335Z,17.10
2023-05-22T03:03:08.861Z,17.10
2023-05-22T03:05:37.032Z,17.10
2023-05-22T03:08:05.825Z,17.10
2023-05-22T03:10:35.246Z,17.10
2023-05-22T03:13:03.244Z,17.10
2023-05-22T03:15:31.285Z,17.10
2023-05-22T03:18:06.869Z,17.10
2023-05-22T03:20:35.204Z,17.00
2023-05-22T03:23:03.692Z,17.00
2023-05-22T03:25:31.760Z,17.00
2023-05-22T03:28:01.117Z,17.10
2023-05-22T03:30:32.441Z,17.10
2023-05-22T03:33:11.708Z,17.10
2023-05-22T03:35:40.639Z,17.00
2023-05-22T03:38:08.757Z,17.00
2023-05-22T03:40:37.016Z,17.00
2023-05-22T03:43:06.706Z,17.00
2023-05-22T03:45:34.769Z,17.00
2023-05-22T03:48:04.493Z,17.00
2023-05-22T03:50:32.549Z,17.10
2023-05-22T03:53:01.144Z,17.10
2023-05-22T03:55:30.787Z,17.10
2023-05-22T03:57:58.789Z,17.10
2023-05-22T04:00:28.216Z,17.10
2023-05-22T04:02:58.592Z,17.10
2023-05-22T04:05:26.963Z,17.00
2023-05-22T04:07:55.082Z,17.00
2023-05-22T04:10:23.642Z,17.10
2023-05-22T04:12:51.922Z,17.10
2023-05-22T04:15:19.986Z,17.10
2023-05-22T04:17:49.918Z,17.10
2023-05-22T04:20:18.372Z,17.20
2023-05-22T04:22:48.795Z,17.20
2023-05-22T04:25:16.928Z,17.20
2023-05-22T04:27:45.696Z,17.20
2023-05-22T04:30:16.991Z,17.20
2023-05-22T04:32:45.221Z,17.20
2023-05-22T04:35:18.486Z,17.30
2023-05-22T04:37:46.792Z,17.30
2023-05-22T04:40:15.327Z,17.40
2023-05-22T04:42:44.568Z,17.30
2023-05-22T04:45:13.806Z,17.30
2023-05-22T04:47:42.632Z,17.30
2023-05-22T04:50:11.976Z,17.40
2023-05-22T04:52:41.489Z,17.50
2023-05-22T04:55:12.004Z,17.50
2023-05-22T04:57:40.601Z,17.50
2023-05-22T05:00:10.786Z,17.60
2023-05-22T05:02:39.687Z,17.70
2023-05-22T05:05:08.276Z,17.70
2023-05-22T05:07:38.642Z,17.80
2023-05-22T05:10:09.037Z,18.00
2023-05-22T05:12:37.170Z,18.00
2023-05-22T05:15:06.193Z,18.00
2023-05-22T05:17:34.282Z,18.00
2023-05-22T05:20:06.520Z,18.00
2023-05-22T05:22:34.700Z,18.00
2023-05-22T05:25:04.233Z,18.00
2023-05-22T05:27:34.013Z,18.00
2023-05-22T05:30:03.576Z,18.00
2023-05-22T05:32:43.913Z,18.00
2023-05-22T05:35:34.717Z,18.00
2023-05-22T05:38:05.554Z,18.10
2023-05-22T05:40:35.053Z,18.00
2023-05-22T05:43:06.649Z,18.10
2023-05-22T05:45:36.749Z,18.00
2023-05-22T05:48:05.487Z,18.00
2023-05-22T05:50:34.787Z,18.10
2023-05-22T05:53:03.395Z,18.10
2023-05-22T05:55:34.464Z,18.10
2023-05-22T05:58:04.765Z,18.10
2023-05-22T06:00:49.096Z,18.20
2023-05-22T06:03:17.786Z,18.30
2023-05-22T06:06:00.320Z,18.40
2023-05-22T06:08:48.372Z,18.40
2023-05-22T06:11:16.448Z,18.50
2023-05-22T06:13:55.851Z,18.60
2023-05-22T06:16:24.237Z,18.70
2023-05-22T06:18:52.539Z,18.80
2023-05-22T06:21:22.073Z,18.90
2023-05-22T06:23:51.145Z,19.00
2023-05-22T06:26:20.291Z,19.00
2023-05-22T06:28:50.535Z,19.10
2023-05-22T06:31:21.275Z,19.40
2023-05-22T06:33:50.375Z,19.60
2023-05-22T06:36:19.004Z,19.70
2023-05-22T06:38:47.143Z,19.80
2023-05-22T06:41:35.767Z,20.00
2023-05-22T06:44:06.430Z,19.90
2023-05-22T06:46:40.598Z,20.00
2023-05-22T06:49:08.659Z,19.80
2023-05-22T06:51:43.148Z,19.80
2023-05-22T06:54:13.902Z,19.90
2023-05-22T06:56:44.634Z,20.00
2023-05-22T06:59:16.975Z,20.00
2023-05-22T07:02:06.702Z,20.10
2023-05-22T07:04:53.587Z,20.20
2023-05-22T07:07:44.724Z,20.30
2023-05-22T07:10:13.264Z,20.50
2023-05-22T07:12:41.322Z,20.80
2023-05-22T07:15:12.190Z,20.90
2023-05-22T07:17:43.133Z,21.10
2023-05-22T07:20:12.116Z,21.30
2023-05-22T07:22:43.312Z,21.40
2023-05-22T07:25:11.990Z,21.60
2023-05-22T07:27:40.694Z,21.50
2023-05-22T07:30:09.894Z,21.40
2023-05-22T07:32:39.091Z,21.60
2023-05-22T07:35:11.671Z,21.90
2023-05-22T07:37:41.272Z,21.90
2023-05-22T07:40:11.113Z,22.00
2023-05-22T07:42:39.269Z,22.30
2023-05-22T07:45:09.837Z,22.70
2023-05-22T07:47:37.958Z,22.80
2023-05-22T07:50:07.247Z,23.20
2023-05-22T07:52:39.643Z,23.50
2023-05-22T07:55:09.230Z,23.90
2023-05-22T07:57:40.138Z,24.20
2023-05-22T08:00:18.474Z,24.00
2023-05-22T08:02:46.633Z,23.90
2023-05-22T08:05:14.749Z,24.20
2023-05-22T08:07:44.168Z,24.90
2023-05-22T08:10:16.499Z,25.10
2023-05-22T08:12:44.524Z,25.50
2023-05-22T08:15:13.223Z,24.80
2023-05-22T08:17:41.282Z,24.60
2023-05-22T08:20:10.379Z,24.40
2023-05-22T08:22:39.863Z,24.50
2023-05-22T08:25:10.220Z,24.70
2023-05-22T08:27:38.218Z,25.10
2023-05-22T08:30:07.819Z,25.20
2023-05-22T08:32:36.034Z,25.10
2023-05-22T08:35:04.308Z,25.30
2023-05-22T08:37:32.357Z,25.30
2023-05-22T08:40:00.445Z,25.50
2023-05-22T08:42:30.146Z,25.60
2023-05-22T08:45:00.968Z,25.80
2023-05-22T08:47:29.496Z,25.80
2023-05-22T08:49:59.865Z,25.90
2023-05-22T08:52:33.969Z,26.10
2023-05-22T08:55:06.063Z,26.30
2023-05-22T08:57:35.820Z,26.50
2023-05-22T09:00:04.977Z,26.50
2023-05-22T09:02:33.459Z,26.30
2023-05-22T09:05:05.205Z,26.20
2023-05-22T09:07:33.267Z,26.20
2023-05-22T09:10:05.116Z,26.70
2023-05-22T09:12:35.257Z,27.00
2023-05-22T09:15:10.304Z,27.10
2023-05-22T09:17:41.094Z,27.20
2023-05-22T09:20:13.188Z,27.30
2023-05-22T09:22:41.247Z,27.30
2023-05-22T09:25:09.983Z,27.10
2023-05-22T09:27:39.349Z,26.90
2023-05-22T09:30:10.461Z,26.60
2023-05-22T09:32:39.647Z,26.70
2023-05-22T09:35:08.290Z,26.80
2023-05-22T09:37:37.084Z,27.30
2023-05-22T09:40:07.243Z,27.60
2023-05-22T09:42:35.801Z,27.60
2023-05-22T09:45:09.783Z,27.30
2023-05-22T09:47:38.180Z,26.80
2023-05-22T09:50:08.630Z,26.60
2023-05-22T09:52:38.214Z,26.70
2023-05-22T09:55:08.580Z,26.80
2023-05-22T09:57:43.542Z,26.70
2023-05-22T10:00:18.405Z,26.60
2023-05-22T10:02:49.318Z,26.60
2023-05-22T10:05:21.840Z,26.60
2023-05-22T10:07:51.991Z,26.60
2023-05-22T10:10:22.527Z,26.60
2023-05-22T10:12:54.263Z,26.50
2023-05-22T10:15:24.467Z,26.50
2023-05-22T10:17:52.833Z,26.50
2023-05-22T10:20:21.390Z,26.60
2023-05-22T10:22:49.920Z,26.90
2023-05-22T10:25:19.266Z,26.80
2023-05-22T10:27:47.484Z,26.60
2023-05-22T10:30:25.196Z,26.80
2023-05-22T10:33:33.137Z,27.10
2023-05-22T10:36:06.438Z,27.10
2023-05-22T10:38:54.147Z,27.10
2023-05-22T10:41:23.441Z,27.40
2023-05-22T10:43:52.027Z,27.80
2023-05-22T10:46:22.027Z,28.10
2023-05-22T10:48:53.015Z,28.30
2023-05-22T10:51:23.320Z,28.30
2023-05-22T10:53:54.303Z,28.50
2023-05-22T10:56:25.333Z,28.80
2023-05-22T10:58:58.025Z,28.70
2023-05-22T11:01:28.416Z,29.00
2023-05-22T11:04:13.041Z,29.30
2023-05-22T11:06:46.951Z,29.30
2023-05-22T11:09:20.390Z,29.50
2023-05-22T11:11:49.286Z,29.10
2023-05-22T11:14:18.428Z,28.80
2023-05-22T11:16:48.016Z,28.40
2023-05-22T11:21:48.103Z,28.20
2023-05-22T11:24:18.008Z,28.00
2023-05-22T11:27:01.438Z,28.10
2023-05-22T11:29:30.358Z,28.00
2023-05-22T11:32:00.268Z,27.90
2023-05-22T11:34:28.550Z,27.80
2023-05-22T11:37:00.313Z,27.70
2023-05-22T11:39:28.673Z,27.80
2023-05-22T11:41:56.765Z,27.70
2023-05-22T11:44:24.832Z,27.60
2023-05-22T11:46:54.329Z,27.60
2023-05-22T11:49:25.296Z,27.60
2023-05-22T11:51:53.490Z,27.50
2023-05-22T11:54:22.211Z,27.50
2023-05-22T11:56:50.370Z,27.40
2023-05-22T11:59:18.365Z,27.30
2023-05-22T12:01:46.345Z,27.20
2023-05-22T12:04:14.413Z,27.20
2023-05-22T12:06:44.227Z,27.40
2023-05-22T12:09:12.532Z,27.70
2023-05-22T12:11:40.655Z,27.80
2023-05-22T12:14:13.021Z,27.80
2023-05-22T12:16:41.510Z,27.80
2023-05-22T12:19:10.681Z,27.80
2023-05-22T12:21:40.963Z,27.70
2023-05-22T12:24:10.888Z,27.60
2023-05-22T12:26:42.209Z,27.70
2023-05-22T12:29:10.282Z,27.60
2023-05-22T12:31:38.578Z,27.70
2023-05-22T12:34:09.469Z,27.70
2023-05-22T12:36:41.079Z,27.70
2023-05-22T12:39:11.099Z,27.50
2023-05-22T12:41:39.328Z,27.70
2023-05-22T12:44:07.498Z,27.50
2023-05-22T12:46:35.786Z,27.30
2023-05-22T12:49:03.893Z,27.30
2023-05-22T12:51:33.333Z,27.40
2023-05-22T12:54:02.616Z,27.20
2023-05-22T12:56:32.424Z,27.20
2023-05-22T12:59:00.541Z,27.20
2023-05-22T13:01:28.650Z,27.10
2023-05-22T13:03:56.634Z,27.00
2023-05-22T13:06:24.748Z,27.00
2023-05-22T13:08:52.818Z,26.80
2023-05-22T13:11:23.435Z,26.70
2023-05-22T13:13:52.804Z,26.60
2023-05-22T13:16:21.237Z,26.70
2023-05-22T13:18:49.335Z,26.80
2023-05-22T13:21:17.484Z,26.80
2023-05-22T13:23:45.755Z,26.80
2023-05-22T13:26:13.754Z,26.90
2023-05-22T13:28:41.731Z,27.00
2023-05-22T13:31:11.107Z,27.10
2023-05-22T13:33:39.127Z,27.10
2023-05-22T13:36:07.522Z,27.10
2023-05-22T13:38:35.516Z,27.20
2023-05-22T13:41:03.537Z,27.20
2023-05-22T13:43:31.536Z,27.40
2023-05-22T13:45:59.578Z,27.50
2023-05-22T13:48:29.289Z,27.60
2023-05-22T13:50:57.275Z,27.70
2023-05-22T13:53:25.364Z,27.60
2023-05-22T13:55:54.546Z,27.60
2023-05-22T13:58:22.609Z,27.70
2023-05-22T14:00:50.782Z,27.50
2023-05-22T14:03:19.433Z,27.30
2023-05-22T14:05:48.840Z,27.20
2023-05-22T14:08:16.808Z,27.20
2023-05-22T14:10:44.816Z,27.10
2023-05-22T14:13:12.779Z,26.90
2023-05-22T14:15:42.453Z,26.80
2023-05-22T14:18:11.203Z,26.60
2023-05-22T14:20:39.263Z,26.50
2023-05-22T14:23:08.773Z,26.30
2023-05-22T14:25:36.793Z,26.10
2023-05-22T14:28:04.773Z,26.10
2023-05-22T14:30:32.760Z,25.80
2023-05-22T14:33:00.807Z,25.60
2023-05-22T14:35:28.862Z,25.30
2023-05-22T14:37:56.887Z,24.80
2023-05-22T14:40:26.532Z,24.40
2023-05-22T14:42:54.652Z,23.90
2023-05-22T14:45:22.989Z,23.50
2023-05-22T14:47:51.230Z,23.40
2023-05-22T14:50:20.594Z,23.30
2023-05-22T14:52:49.412Z,23.30
2023-05-22T14:55:18.271Z,23.30
2023-05-22T14:57:47.607Z,23.40
2023-05-22T15:00:16.426Z,23.40
2023-05-22T15:02:44.545Z,23.40
2023-05-22T15:05:12.748Z,23.40
2023-05-22T15:07:44.567Z,22.90
2023-05-22T15:10:14.036Z,22.70
2023-05-22T15:12:42.169Z,22.60
2023-05-22T15:15:12.403Z,22.60
2023-05-22T15:17:42.586Z,22.60
2023-05-22T15:20:12.070Z,22.50
2023-05-22T15:22:40.318Z,22.40
2023-05-22T15:25:11.819Z,22.50
2023-05-22T15:27:40.869Z,22.40
2023-05-22T15:30:10.684Z,22.30
2023-05-22T15:32:40.202Z,22.40
2023-05-22T15:35:09.684Z,22.40
2023-05-22T15:37:37.681Z,22.30
2023-05-22T15:40:08.088Z,22.20
2023-05-22T15:42:36.156Z,22.10
2023-05-22T15:45:04.206Z,22.00
2023-05-22T15:47:32.242Z,21.90
2023-05-22T15:50:01.646Z,21.90
2023-05-22T15:52:29.615Z,21.90
2023-05-22T15:54:58.768Z,21.80
2023-05-22T15:57:28.384Z,21.80
2023-05-22T15:59:56.524Z,21.70
2023-05-22T16:02:25.433Z,21.70
2023-05-22T16:04:53.697Z,21.70
2023-05-22T16:07:23.057Z,21.70
2023-05-22T16:09:51.125Z,21.70
2023-05-22T16:12:19.853Z,21.60
2023-05-22T16:14:47.936Z,21.70
2023-05-22T16:17:16.152Z,21.70
2023-05-22T16:19:44.212Z,21.70
2023-05-22T16:22:12.228Z,21.70
2023-05-22T16:24:41.613Z,21.80
2023-05-22T16:27:09.635Z,21.80
2023-05-22T16:29:37.615Z,21.80
2023-05-22T16:32:06.215Z,21.70
2023-05-22T16:34:34.771Z,21.50
2023-05-22T16:37:02.797Z,21.40
2023-05-22T16:39:30.865Z,21.50
2023-05-22T16:42:01.894Z,21.70
2023-05-22T16:44:29.861Z,21.80
2023-05-22T16:46:58.000Z,21.90
2023-05-22T16:49:26.051Z,21.80
2023-05-22T16:51:54.035Z,21.80
2023-05-22T16:54:23.018Z,21.80
2023-05-22T16:56:51.010Z,21.60
2023-05-22T16:59:20.605Z,21.70
2023-05-22T17:01:48.729Z,21.80
2023-05-22T17:04:19.115Z,21.80
2023-05-22T17:06:47.236Z,21.70
2023-05-22T17:09:15.476Z,21.70
2023-05-22T17:11:43.484Z,21.60
2023-05-22T17:14:11.542Z,21.60
2023-05-22T17:16:43.799Z,21.70
2023-05-22T17:19:12.039Z,21.70
2023-05-22T17:21:40.337Z,21.60
2023-05-22T17:24:12.056Z,21.40
2023-05-22T17:26:41.490Z,21.20
2023-05-22T17:29:10.931Z,21.10
2023-05-22T17:31:40.516Z,21.20
2023-05-22T17:34:11.237Z,21.10
2023-05-22T17:36:39.198Z,21.20
2023-05-22T17:39:07.242Z,21.10
2023-05-22T17:41:35.241Z,21.10
2023-05-22T17:44:03.211Z,21.10
2023-05-22T17:46:31.393Z,21.00
2023-05-22T17:49:00.952Z,20.90
2023-05-22T17:51:29.233Z,20.90
2023-05-22T17:53:59.007Z,20.90
2023-05-22T17:56:27.792Z,20.90
2023-05-22T17:58:56.018Z,20.90
2023-05-22T18:01:24.541Z,20.80
2023-05-22T18:03:52.796Z,20.80
2023-05-22T18:06:24.291Z,20.80
2023-05-22T18:08:52.529Z,20.70
2023-05-22T18:11:21.049Z,20.70
2023-05-22T18:13:49.222Z,20.70
2023-05-22T18:16:18.796Z,20.70
2023-05-22T18:18:46.797Z,20.60
2023-05-22T18:21:14.922Z,20.60
2023-05-22T18:23:44.322Z,20.60
2023-05-22T18:26:12.345Z,20.50
2023-05-22T18:28:42.350Z,20.50
2023-05-22T18:31:10.367Z,20.60
2023-05-22T18:33:39.234Z,20.50
2023-05-22T18:36:07.783Z,20.50
2023-05-22T18:38:35.824Z,20.40
2023-05-22T18:41:05.516Z,20.30
2023-05-22T18:43:33.701Z,20.30
2023-05-22T18:46:01.740Z,20.30
2023-05-22T18:48:30.920Z,20.20
2023-05-22T18:50:59.172Z,20.20
2023-05-22T18:53:27.424Z,20.20
2023-05-22T18:55:55.880Z,20.30
2023-05-22T18:58:25.550Z,20.20
2023-05-22T19:00:55.431Z,20.00
2023-05-22T19:03:23.569Z,19.90
2023-05-22T19:05:51.613Z,19.70
2023-05-22T19:08:20.133Z,19.70
2023-05-22T19:10:48.131Z,19.50
2023-05-22T19:13:16.144Z,19.40
2023-05-22T19:15:46.395Z,19.30
2023-05-22T19:18:14.424Z,19.20
2023-05-22T19:20:42.588Z,19.20
2023-05-22T19:23:12.130Z,19.20
2023-05-22T19:25:40.102Z,19.10
2023-05-22T19:28:08.084Z,19.10
2023-05-22T19:30:36.120Z,19.10
2023-05-22T19:33:07.899Z,19.00
2023-05-22T19:35:36.817Z,19.00
2023-05-22T19:38:04.988Z,19.00
2023-05-22T19:40:32.973Z,19.00
2023-05-22T19:43:01.663Z,19.00
2023-05-22T19:45:29.763Z,18.90
2023-05-22T19:47:58.216Z,18.90
2023-05-22T19:50:27.627Z,18.90
2023-05-22T19:52:55.621Z,18.90
2023-05-22T19:55:23.798Z,18.90
2023-05-22T19:57:51.818Z,18.80
2023-05-22T20:00:23.673Z,18.80
2023-05-22T20:02:51.743Z,18.80
2023-05-22T20:05:19.788Z,18.70
2023-05-22T20:07:51.603Z,18.80
2023-05-22T20:10:19.854Z,18.70
2023-05-22T20:12:47.863Z,18.80
2023-05-22T20:15:17.721Z,18.70
2023-05-22T20:17:47.477Z,18.70
2023-05-22T20:20:15.675Z,18.60
2023-05-22T20:22:43.693Z,18.60
2023-05-22T20:25:13.199Z,18.60
2023-05-22T20:27:41.221Z,18.60
2023-05-22T20:30:11.460Z,18.60
2023-05-22T20:32:40.180Z,18.50
2023-05-22T20:35:10.836Z,18.50
2023-05-22T20:37:41.017Z,18.50
2023-05-22T20:40:10.368Z,18.40
2023-05-22T20:42:40.901Z,18.40
2023-05-22T20:45:12.166Z,18.50
2023-05-22T20:47:41.725Z,18.40
2023-05-22T20:50:10.996Z,18.40
2023-05-22T20:52:39.091Z,18.40
2023-05-22T20:55:07.976Z,18.40
2023-05-22T20:57:36.016Z,18.40
2023-05-22T21:00:09.431Z,18.30
2023-05-22T21:02:38.788Z,18.30
2023-05-22T21:05:07.490Z,18.30
2023-05-22T21:07:35.514Z,18.30
2023-05-22T21:10:03.760Z,18.30
2023-05-22T21:12:31.792Z,18.20
2023-05-22T21:14:59.771Z,18.20
2023-05-22T21:17:29.168Z,18.20
2023-05-22T21:19:57.153Z,18.20
2023-05-22T21:22:25.185Z,18.20
2023-05-22T21:24:53.171Z,18.20
2023-05-22T21:27:21.244Z,18.10
2023-05-22T21:29:49.381Z,18.10
2023-05-22T21:32:17.560Z,18.10
2023-05-22T21:34:47.351Z,18.10
2023-05-22T21:37:15.346Z,18.10
2023-05-22T21:39:43.353Z,18.10
2023-05-22T21:42:11.589Z,18.00
2023-05-22T21:44:39.866Z,18.00
2023-05-22T21:47:07.963Z,17.90
2023-05-22T21:49:38.714Z,17.90
2023-05-22T21:52:08.902Z,17.80
2023-05-22T21:54:37.219Z,17.80
2023-05-22T21:57:05.510Z,17.80
2023-05-22T21:59:33.589Z,17.80
2023-05-22T22:02:01.745Z,17.80
2023-05-22T22:04:29.865Z,17.70
2023-05-22T22:06:57.866Z,17.70
2023-05-22T22:09:27.273Z,17.70
2023-05-22T22:11:55.300Z,17.60
2023-05-22T22:14:24.006Z,17.70
2023-05-22T22:16:54.186Z,17.60
2023-05-22T22:19:22.921Z,17.60
2023-05-22T22:21:51.581Z,17.60
2023-05-22T22:24:19.644Z,17.70
2023-05-22T22:26:49.143Z,17.70
2023-05-22T22:29:17.413Z,17.80
2023-05-22T22:31:45.681Z,17.70
2023-05-22T22:34:13.741Z,17.70
2023-05-22T22:36:41.947Z,17.70
2023-05-22T22:39:09.958Z,17.80
2023-05-22T22:41:38.004Z,17.80
2023-05-22T22:44:07.337Z,17.80
2023-05-22T22:46:35.649Z,17.90
2023-05-22T22:49:03.702Z,17.90
2023-05-22T22:51:31.834Z,17.80
2023-05-22T22:53:59.899Z,17.90
2023-05-22T22:56:29.344Z,17.90
2023-05-22T22:58:57.684Z,17.80
2023-05-22T23:01:27.065Z,17.80
2023-05-22T23:03:55.131Z,17.80
2023-05-22T23:06:23.874Z,17.80
2023-05-22T23:08:51.872Z,17.80
2023-05-22T23:11:20.043Z,17.80
2023-05-22T23:13:48.110Z,17.80
2023-05-22T23:16:16.299Z,17.70
2023-05-22T23:18:45.882Z,17.80
2023-05-22T23:21:13.918Z,17.80
2023-05-22T23:23:41.899Z,17.80
2023-05-22T23:26:11.052Z,17.80
2023-05-22T23:28:39.082Z,17.80
2023-05-22T23:31:07.283Z,17.80
2023-05-22T23:33:35.314Z,17.70
2023-05-22T23:36:04.882Z,17.90
2023-05-22T23:38:32.876Z,17.80
2023-05-22T23:41:00.931Z,17.80
2023-05-22T23:43:28.946Z,17.80
2023-05-22T23:45:57.645Z,17.80
2023-05-22T23:48:25.618Z,17.80
2023-05-22T23:50:53.596Z,17.70
2023-05-22T23:53:22.960Z,17.70
2023-05-22T23:55:50.952Z,17.70
2023-05-22T23:58:18.937Z,17.60
